地図

経路データ

SID SEASON NUMBER BASIN SUBBASIN NAME ISO_TIME NATURE LAT LON WMO_WIND WMO_PRES WMO_AGENCY TRACK_TYPE DIST2LAND LANDFALL IFLAG USA_AGENCY USA_ATCF_ID USA_LAT USA_LON USA_RECORD USA_STATUS USA_WIND USA_PRES USA_SSHS USA_R34_NE USA_R34_SE USA_R34_SW USA_R34_NW USA_R50_NE USA_R50_SE USA_R50_SW USA_R50_NW USA_R64_NE USA_R64_SE USA_R64_SW USA_R64_NW USA_POCI USA_ROCI USA_RMW USA_EYE TOKYO_LAT TOKYO_LON TOKYO_GRADE TOKYO_WIND TOKYO_PRES TOKYO_R50_DIR TOKYO_R50_LONG TOKYO_R50_SHORT TOKYO_R30_DIR TOKYO_R30_LONG TOKYO_R30_SHORT TOKYO_LAND CMA_LAT CMA_LON CMA_CAT CMA_WIND CMA_PRES HKO_LAT HKO_LON HKO_CAT HKO_WIND HKO_PRES NEWDELHI_LAT NEWDELHI_LON NEWDELHI_GRADE NEWDELHI_WIND NEWDELHI_PRES NEWDELHI_CI NEWDELHI_DP NEWDELHI_POCI REUNION_LAT REUNION_LON REUNION_TYPE REUNION_WIND REUNION_PRES REUNION_TNUM REUNION_CI REUNION_RMW REUNION_R34_NE REUNION_R34_SE REUNION_R34_SW REUNION_R34_NW REUNION_R50_NE REUNION_R50_SE REUNION_R50_SW REUNION_R50_NW REUNION_R64_NE REUNION_R64_SE REUNION_R64_SW REUNION_R64_NW BOM_LAT BOM_LON BOM_TYPE BOM_WIND BOM_PRES BOM_TNUM BOM_CI BOM_RMW BOM_R34_NE BOM_R34_SE BOM_R34_SW BOM_R34_NW BOM_R50_NE BOM_R50_SE BOM_R50_SW BOM_R50_NW BOM_R64_NE BOM_R64_SE BOM_R64_SW BOM_R64_NW BOM_ROCI BOM_POCI BOM_EYE BOM_POS_METHOD BOM_PRES_METHOD NADI_LAT NADI_LON NADI_CAT NADI_WIND NADI_PRES WELLINGTON_LAT WELLINGTON_LON WELLINGTON_WIND WELLINGTON_PRES DS824_LAT DS824_LON DS824_STAGE DS824_WIND DS824_PRES TD9636_LAT TD9636_LON TD9636_STAGE TD9636_WIND TD9636_PRES TD9635_LAT TD9635_LON TD9635_WIND TD9635_PRES TD9635_ROCI NEUMANN_LAT NEUMANN_LON NEUMANN_CLASS NEUMANN_WIND NEUMANN_PRES MLC_LAT MLC_LON MLC_CLASS MLC_WIND MLC_PRES USA_GUST BOM_GUST BOM_GUST_PER REUNION_GUST REUNION_GUST_PER USA_SEAHGT USA_SEARAD_NE USA_SEARAD_SE USA_SEARAD_SW USA_SEARAD_NW STORM_SPEED STORM_DIR
1945326N10139 1945 78 WP MM NORA 1945-11-21 21:00:00 NR 10.0000 138.600 main 1244 1238 __________O___ -1 10.0000 138.600 1 30 5 279
1945326N10139 1945 78 WP MM NORA 1945-11-22 00:00:00 TS 10.0360 138.357 main 1238 1234 O________OPO__ jtwc_wp WP261945 10.0000 138.600 30 -1 10.0000 138.600 TC 30 10.0900 137.993 1 30 10.0000 138.600 30 1002 180 8 278
1945326N10139 1945 78 WP MM NORA 1945-11-22 03:00:00 TS 10.1248 137.748 main 1232 1198 P________PPP__ WP261945 10.0904 137.928 30 -1 10.0904 137.928 TC 30 10.1936 137.389 1 30 10.0904 137.928 30 1001 180 12 280
1945326N10139 1945 78 WP MM NORA 1945-11-22 06:00:00 TS 10.2386 137.143 main 1187 1139 O________OPO__ jtwc_wp WP261945 10.2000 137.300 30 -1 10.2000 137.300 TC 30 10.3253 136.791 1 30 10.2000 137.300 30 1001 180 12 283
1945326N10139 1945 78 WP MM NORA 1945-11-22 09:00:00 TS 10.3817 136.607 main 1139 1089 P________POP__ WP261945 10.3423 136.742 30 -1 10.3423 136.742 TC 30 10.5000 136.200 1 30 10.3423 136.742 30 1000 270 11 286
1945326N10139 1945 78 WP MM NORA 1945-11-22 12:00:00 TS 10.5552 136.054 main 1093 1031 O________OPO__ jtwc_wp WP261945 10.5000 136.200 30 -1 10.5000 136.200 TC 30 10.7210 135.617 1 32 10.5000 136.200 30 1000 360 12 287
1945326N10139 1945 78 WP MM NORA 1945-11-22 15:00:00 TS 10.7185 135.463 main 1031 971 P________PPP__ WP261945 10.6424 135.607 35 0 10.6424 135.607 TC 35 10.9467 135.031 1 35 10.6424 135.607 35 999 360 12 285
1945326N10139 1945 78 WP MM NORA 1945-11-22 18:00:00 TS 10.8810 134.857 main 971 909 O________OPO__ jtwc_wp WP261945 10.8000 135.000 40 0 10.8000 135.000 TC 40 11.1240 134.430 1 37 10.8000 135.000 40 998 360 12 286
1945326N10139 1945 78 WP MM NORA 1945-11-22 21:00:00 TS 11.0441 134.284 main 909 848 P________POP__ WP261945 10.9921 134.445 40 0 10.9921 134.445 TC 40 11.2000 133.800 2 40 10.9921 134.445 40 996 300 13 283
1945326N10139 1945 78 WP MM NORA 1945-11-23 00:00:00 TS 11.1609 133.617 main 840 756 O________OPO__ jtwc_wp WP261945 11.2000 133.800 40 0 11.2000 133.800 TC 40 11.0435 133.066 2 42 11.2000 133.800 40 995 240 15 278
1945326N10139 1945 78 WP MM NORA 1945-11-23 03:00:00 TS 11.2432 132.743 main 746 666 P________PPP__ WP261945 11.3931 132.885 45 0 11.3931 132.885 TC 45 10.7935 132.315 2 45 11.3931 132.885 45 993 240 17 276
1945326N10139 1945 78 WP MM NORA 1945-11-23 06:00:00 TS 11.3367 131.902 main 666 612 O________OPO__ jtwc_wp WP261945 11.6000 132.000 50 0 11.6000 132.000 TC 50 10.5466 131.607 2 47 11.6000 132.000 50 992 240 14 280
1945326N10139 1945 78 WP MM NORA 1945-11-23 09:00:00 TS 11.4815 131.330 main 602 561 P________POP__ WP261945 11.8420 131.440 50 0 11.8420 131.440 TC 50 10.4000 131.000 2 50 11.8420 131.440 50 990 240 11 290
1945326N10139 1945 78 WP MM NORA 1945-11-23 12:00:00 TS 11.6930 130.890 main 561 522 O________OPO__ jtwc_wp WP261945 12.1000 131.000 50 0 12.1000 131.000 TC 50 10.4720 130.560 2 50 12.1000 131.000 50 988 240 10 297
1945326N10139 1945 78 WP MM NORA 1945-11-23 15:00:00 TS 11.9266 130.431 main 511 474 P________PPP__ WP261945 12.3499 130.500 50 0 12.3499 130.500 TC 50 10.6565 130.223 2 50 12.3499 130.500 50 986 240 10 299
1945326N10139 1945 78 WP MM NORA 1945-11-23 18:00:00 TS 12.1782 129.988 main 477 442 O________OPO__ jtwc_wp WP261945 12.6000 130.000 50 0 12.6000 130.000 TC 50 10.9128 129.950 2 50 12.6000 130.000 50 985 240 10 300
1945326N10139 1945 78 WP MM NORA 1945-11-23 21:00:00 TS 12.4318 129.544 main 432 393 P________POP__ WP261945 12.8424 129.492 50 0 12.8424 129.492 TC 50 11.2000 129.700 2 50 12.8424 129.492 50 984 240 10 300
1945326N10139 1945 78 WP MM NORA 1945-11-24 00:00:00 TS 12.6792 129.096 main 395 356 O________OPO__ jtwc_wp WP261945 13.1000 129.000 50 0 13.1000 129.000 TC 50 11.4169 129.382 2 55 13.1000 129.000 50 983 240 10 302
1945326N10139 1945 78 WP MM NORA 1945-11-24 03:00:00 TS 12.9819 128.649 main 348 323 P________PPP__ WP261945 13.4225 128.505 57 0 13.4225 128.505 TC 57 11.6601 129.082 2 60 13.4225 128.505 57 982 240 10 306
1945326N10139 1945 78 WP MM NORA 1945-11-24 06:00:00 TS 13.2621 128.279 main 327 302 O________OPO__ jtwc_wp WP261945 13.7000 128.100 65 1 13.7000 128.100 TC 65 11.9482 128.817 2 65 13.7000 128.100 65 981 240 8 308
1945326N10139 1945 78 WP MM NORA 1945-11-24 09:00:00 TS 13.4418 128.035 main 302 298 P________POP__ WP261945 13.8224 127.847 67 1 13.8224 127.847 TC 67 12.3000 128.600 3 70 13.8224 127.847 67 980 240 5 313
1945326N10139 1945 78 WP MM NORA 1945-11-24 12:00:00 TS 13.6189 127.881 main 303 300 O________OPO__ jtwc_wp WP261945 13.9000 127.700 70 1 13.9000 127.700 TC 70 12.7758 128.425 3 70 13.9000 127.700 70 980 240 5 328
1945326N10139 1945 78 WP MM NORA 1945-11-24 15:00:00 TS 13.8531 127.770 main 313 305 P________PPP__ WP261945 14.0350 127.592 70 1 14.0350 127.592 TC 70 13.3073 128.303 3 70 14.0350 127.592 70 980 270 5 339
1945326N10139 1945 78 WP MM NORA 1945-11-24 18:00:00 TS 14.1088 127.682 main 319 319 O________OPO__ jtwc_wp WP261945 14.2000 127.500 70 1 14.2000 127.500 TC 70 13.8352 128.229 3 70 14.2000 127.500 70 980 300 6 338
1945326N10139 1945 78 WP MM NORA 1945-11-24 21:00:00 TS 14.3694 127.557 main 334 326 P________POP__ WP261945 14.3925 127.343 70 1 14.3925 127.343 TC 70 14.3000 128.200 4 70 14.3925 127.343 70 980 270 5 336
1945326N10139 1945 78 WP MM NORA 1945-11-25 00:00:00 TS 14.6054 127.450 main 332 332 O________OPO__ jtwc_wp WP261945 14.6000 127.200 70 1 14.6000 127.200 TC 70 14.6218 128.199 4 68 14.6000 127.200 70 980 240 5 339
1945326N10139 1945 78 WP MM NORA 1945-11-25 03:00:00 TS 14.8131 127.383 main 338 338 P________PPP__ WP261945 14.7925 127.098 67 1 14.7925 127.098 TC 67 14.8749 128.240 4 67 14.7925 127.098 67 980 240 4 355
1945326N10139 1945 78 WP MM NORA 1945-11-25 06:00:00 TS 15.0226 127.403 main 345 345 O________OPO__ jtwc_wp WP261945 15.0000 127.100 65 1 15.0000 127.100 TC 65 15.0906 128.311 4 66 15.0000 127.100 65 981 240 5 18
1945326N10139 1945 78 WP MM NORA 1945-11-25 09:00:00 TS 15.2625 127.536 main 368 368 P________POP__ WP261945 15.2500 127.247 65 1 15.2500 127.247 TC 65 15.3000 128.400 4 65 15.2500 127.247 65 981 270 6 34
1945326N10139 1945 78 WP MM NORA 1945-11-25 12:00:00 TS 15.5145 127.745 main 397 397 O________OPO__ jtwc_wp WP261945 15.5000 127.500 65 1 15.5000 127.500 TC 65 15.5581 128.482 4 65 15.5000 127.500 65 981 300 6 42
1945326N10139 1945 78 WP MM NORA 1945-11-25 15:00:00 TS 15.7400 127.978 main 436 436 P________PPP__ WP261945 15.7150 127.778 65 1 15.7150 127.778 TC 65 15.8150 128.577 4 65 15.7150 127.778 65 981 330 6 48
1945326N10139 1945 78 WP MM NORA 1945-11-25 18:00:00 TS 15.9411 128.246 main 465 465 O________OPO__ jtwc_wp WP261945 15.9000 128.100 65 1 15.9000 128.100 TC 65 16.0644 128.685 4 65 15.9000 128.100 65 981 360 7 54
1945326N10139 1945 78 WP MM NORA 1945-11-25 21:00:00 TS 16.1294 128.543 main 504 504 P________POP__ WP261945 16.0725 128.457 65 1 16.0725 128.457 TC 65 16.3000 128.800 4 65 16.0725 128.457 65 981 330 7 59
1945326N10139 1945 78 WP MM NORA 1945-11-26 00:00:00 TS 16.2776 128.826 main 543 543 O________OPO__ jtwc_wp WP261945 16.2000 128.800 65 1 16.2000 128.800 TC 65 16.5102 128.906 4 66 16.2000 128.800 65 981 300 5 63
1945326N10139 1945 78 WP MM NORA 1945-11-26 03:00:00 TS 16.3641 129.015 main 567 567 P________PPP__ WP261945 16.2496 129.013 67 1 16.2496 129.013 TC 67 16.7074 129.020 4 67 16.2496 129.013 67 980 300 5 68
1945326N10139 1945 78 WP MM NORA 1945-11-26 06:00:00 TS 16.4502 129.262 main 601 601 O________OPO__ jtwc_wp WP261945 16.3000 129.300 70 1 16.3000 129.300 TC 70 16.9008 129.150 4 68 16.3000 129.300 70 980 300 7 70
1945326N10139 1945 78 WP MM NORA 1945-11-26 09:00:00 TS 16.6071 129.727 main 644 644 P________POP__ WP261945 16.4429 129.870 70 1 16.4429 129.870 TC 70 17.1000 129.300 4 70 16.4429 129.870 70 978 270 10 71
1945326N10139 1945 78 WP MM NORA 1945-11-26 12:00:00 TS 16.7763 130.236 main 701 701 O________OPO__ jtwc_wp WP261945 16.6000 130.500 70 1 16.6000 130.500 TC 70 17.3053 129.442 4 70 16.6000 130.500 70 976 240 9 71
1945326N10139 1945 78 WP MM NORA 1945-11-26 15:00:00 TS 16.9047 130.632 main 744 744 P________PPP__ WP261945 16.6997 130.973 70 1 16.6997 130.973 TC 70 17.5195 129.611 4 70 16.6997 130.973 70 974 270 8 70
1945326N10139 1945 78 WP MM NORA 1945-11-26 18:00:00 TS 17.0372 131.006 main 788 788 O________OPO__ jtwc_wp WP261945 16.8000 131.400 70 1 16.8000 131.400 TC 70 17.7489 129.824 4 70 16.8000 131.400 70 973 300 8 68
1945326N10139 1945 78 WP MM NORA 1945-11-26 21:00:00 TS 17.2125 131.424 main 836 836 P________POP__ WP261945 16.9500 131.865 70 1 16.9500 131.865 TC 70 18.0000 130.100 4 70 16.9500 131.865 70 972 270 9 66
1945326N10139 1945 78 WP MM NORA 1945-11-27 00:00:00 TS 17.3956 131.837 main 883 883 O________OPO__ jtwc_wp WP261945 17.1000 132.300 70 1 17.1000 132.300 TC 70 18.2826 130.448 4 72 17.1000 132.300 70 972 240 8 66
1945326N10139 1945 78 WP MM NORA 1945-11-27 03:00:00 TS 17.5404 132.197 main 927 927 P________PPP__ WP261945 17.1922 132.643 75 1 17.1922 132.643 TC 75 18.5850 130.860 4 75 17.1922 132.643 75 971 240 8 67
1945326N10139 1945 78 WP MM NORA 1945-11-27 06:00:00 TS 17.6987 132.579 main 975 975 O________OPO__ jtwc_wp WP261945 17.3000 133.000 80 1 17.3000 133.000 TC 80 18.8950 131.317 4 77 17.3000 133.000 80 971 240 9 66
1945326N10139 1945 78 WP MM NORA 1945-11-27 09:00:00 TS 17.9138 133.064 main 1032 1032 P________POP__ WP261945 17.4851 133.485 80 1 17.4851 133.485 TC 80 19.2000 131.800 4 80 17.4851 133.485 80 971 210 10 64
1945326N10139 1945 78 WP MM NORA 1945-11-27 12:00:00 TS 18.1506 133.573 main 1094 1094 O________OPO__ jtwc_wp WP261945 17.7000 134.000 80 1 17.7000 134.000 TC 80 19.5026 132.290 4 80 17.7000 134.000 80 972 180 10 63
1945326N10139 1945 78 WP MM NORA 1945-11-27 15:00:00 TS 18.3793 134.043 main 1142 1142 P________PPP__ WP261945 17.9073 134.458 80 1 17.9073 134.458 TC 80 19.7951 132.800 4 80 17.9073 134.458 80 973 150 10 63
1945326N10139 1945 78 WP MM NORA 1945-11-27 18:00:00 TS 18.5913 134.502 main 1199 1199 O________OPO__ jtwc_wp WP261945 18.1000 134.900 80 1 18.1000 134.900 TC 80 20.0651 133.309 4 80 18.1000 134.900 80 974 120 9 66
1945326N10139 1945 78 WP MM NORA 1945-11-27 21:00:00 TS 18.7568 134.957 main 1256 1256 P________POP__ WP261945 18.2423 135.343 80 1 18.2423 135.343 TC 80 20.3000 133.800 4 80 18.2423 135.343 80 975 150 9 69
1945326N10139 1945 78 WP MM NORA 1945-11-28 00:00:00 TS 18.9254 135.415 main 1298 1298 O________OPO__ jtwc_wp WP261945 18.4000 135.800 80 1 18.4000 135.800 TC 80 20.5018 134.259 4 76 18.4000 135.800 80 976 180 10 67
1945326N10139 1945 78 WP MM NORA 1945-11-28 03:00:00 TS 19.1430 135.899 main 1354 1354 P________PPP__ WP261945 18.6350 136.300 72 1 18.6350 136.300 TC 72 20.6670 134.696 4 72 18.6350 136.300 72 977 180 10 64
1945326N10139 1945 78 WP MM NORA 1945-11-28 06:00:00 TS 19.3747 136.377 main 1416 1408 O________OPO__ jtwc_wp WP261945 18.9000 136.800 65 1 18.9000 136.800 TC 65 20.7988 135.109 4 68 18.9000 136.800 65 978 180 10 62
1945326N10139 1945 78 WP MM NORA 1945-11-28 09:00:00 TS 19.5930 136.813 main 1412 1405 P________POP__ WP261945 19.1573 137.250 65 1 19.1573 137.250 TC 65 20.9000 135.500 4 65 19.1573 137.250 65 981 210 9 62
1945326N10139 1945 78 WP MM NORA 1945-11-28 12:00:00 TS 19.7923 137.229 main 1410 1409 O________OPO__ jtwc_wp WP261945 19.4000 137.700 65 1 19.4000 137.700 TC 65 20.9691 135.816 4 65 19.4000 137.700 65 985 240 9 66
1945326N10139 1945 78 WP MM NORA 1945-11-28 15:00:00 TS 19.9532 137.685 main 1414 1414 P________PPP__ WP261945 19.6000 138.208 65 1 19.6000 138.208 TC 65 21.0127 136.119 4 65 19.6000 138.208 65 988 240 9 70
1945326N10139 1945 78 WP MM NORA 1945-11-28 18:00:00 TS 20.1125 138.141 main 1424 1420 O________OPO__ jtwc_wp WP261945 19.8000 138.700 65 1 19.8000 138.700 TC 65 21.0500 136.463 4 65 19.8000 138.700 65 991 240 9 66
1945326N10139 1945 78 WP MM NORA 1945-11-28 21:00:00 TS 20.3124 138.561 main 1432 1418 P________POP__ WP261945 20.0498 139.115 65 1 20.0498 139.115 TC 65 21.1000 136.900 4 65 20.0498 139.115 65 993 210 8 57
1945326N10139 1945 78 WP MM NORA 1945-11-29 00:00:00 TS 20.5716 138.888 main 1418 1414 O________OPO__ jtwc_wp WP261945 20.3000 139.500 65 1 20.3000 139.500 TC 65 21.1827 137.511 4 20.3000 139.500 65 996 180 8 51
1945326N10139 1945 78 WP MM NORA 1945-11-29 03:00:00 TS 20.8193 139.224 main 1415 1404 P________PPP__ WP261945 20.5127 139.895 50 0 20.5127 139.895 TC 50 21.2790 138.217 4 20.5127 139.895 50 998 210 8 49
1945326N10139 1945 78 WP MM NORA 1945-11-29 06:00:00 TS 21.0918 139.537 main 1404 1378 O________OPO__ jtwc_wp WP261945 20.7000 140.300 35 0 20.7000 140.300 TC 35 21.3857 138.965 4 20.7000 140.300 35 1001 240 8 33
1945326N10139 1945 78 WP MM NORA 1945-11-29 09:00:00 NR 21.5000 139.700 main 1378 1374 __________O___ WP261945 -1 TC 21.5000 139.700 7 9 55
1945326N10139 1945 78 WP MM NORA 1945-11-29 12:00:00 NR 21.6250 140.355 main 1392 1385 __________P___ -1 21.6250 140.355 7 12 78
1945326N10139 1945 78 WP MM NORA 1945-11-29 15:00:00 NR 21.7564 140.987 main 1392 1392 __________P___ -1 21.7564 140.987 7 12 77
1945326N10139 1945 78 WP MM NORA 1945-11-29 18:00:00 NR 21.8845 141.601 main 1404 1404 __________P___ -1 21.8845 141.601 7 12 78
1945326N10139 1945 78 WP MM NORA 1945-11-29 21:00:00 NR 22.0000 142.200 main 1419 1419 __________O___ -1 22.0000 142.200 7 11 80
1945326N10139 1945 78 WP MM NORA 1945-11-30 00:00:00 NR 22.0765 142.798 main 1436 1436 __________P___ -1 22.0765 142.798 7 11 83
1945326N10139 1945 78 WP MM NORA 1945-11-30 03:00:00 NR 22.1417 143.381 main 1465 1457 __________P___ -1 22.1417 143.381 7 11 83
1945326N10139 1945 78 WP MM NORA 1945-11-30 06:00:00 NR 22.2110 143.948 main 1470 1467 __________P___ -1 22.2110 143.948 7 10 81
1945326N10139 1945 78 WP MM NORA 1945-11-30 09:00:00 NR 22.3000 144.500 main 1475 1474 __________O___ -1 22.3000 144.500 7 10 78
1945326N10139 1945 78 WP MM NORA 1945-11-30 12:00:00 NR 22.4185 144.999 main 1480 1473 __________P___ -1 22.4185 144.999 7 10 74
1945326N10139 1945 78 WP MM NORA 1945-11-30 15:00:00 NR 22.5598 145.491 main 1476 1476 __________P___ -1 22.5598 145.491 7 10 72
1945326N10139 1945 78 WP MM NORA 1945-11-30 18:00:00 NR 22.7213 146.012 main 1484 1478 __________P___ -1 22.7213 146.012 7 11 72
1945326N10139 1945 78 WP MM NORA 1945-11-30 21:00:00 NR 22.9000 146.600 main 1488 1486 __________O___ -1 22.9000 146.600 7 12 74
1945326N10139 1945 78 WP MM NORA 1945-12-01 00:00:00 NR 23.0699 147.308 main 1499 1499 __________P___ -1 23.0699 147.308 7 14 75
1945326N10139 1945 78 WP MM NORA 1945-12-01 03:00:00 NR 23.2557 148.084 main 1518 1518 __________P___ -1 23.2557 148.084 7 15 75
1945326N10139 1945 78 WP MM NORA 1945-12-01 06:00:00 NR 23.4635 148.893 main 1541 1541 __________P___ -1 23.4635 148.893 7 15 73
1945326N10139 1945 78 WP MM NORA 1945-12-01 09:00:00 NR 23.7000 149.700 main 1565 1565 __________O___ -1 23.7000 149.700 7 15 71
1945326N10139 1945 78 WP MM NORA 1945-12-01 12:00:00 NR 23.9699 150.479 main 1583 1583 __________P___ -1 23.9699 150.479 7 15 68
1945326N10139 1945 78 WP MM NORA 1945-12-01 15:00:00 NR 24.2665 151.232 main 1598 1598 __________P___ -1 24.2665 151.232 7 15 66
1945326N10139 1945 78 WP MM NORA 1945-12-01 18:00:00 NR 24.5799 151.969 main 1624 1622 __________P___ -1 24.5799 151.969 7 15 65
1945326N10139 1945 78 WP MM NORA 1945-12-01 21:00:00 NR 24.9000 152.700 main 1646 __________O___ -1 24.9000 152.700 7 15 64

デジタル台風データ・検索

IBTrACS Databaseについて

本データベースは、米国NOAAが公開する1842年以降の世界の熱帯低気圧のベストトラックデータアーカイブInternational Best Track Archive for Climate Stewardship (IBTrACS)を、ウェブで閲覧しやすい形式に変換したものです。

最終更新日:2021-12-03